sensor_id;sensor_type;location;lat;lon;timestamp;pressure;altitude;pressure_sealevel;temperature;humidity
77086;BME280;66014;53.134;18.006;2024-02-23T00:00:06;98526.45;;;8.06;91.05
77086;BME280;66014;53.134;18.006;2024-02-23T00:06:57;98528.20;;;8.09;91.01
77086;BME280;66014;53.134;18.006;2024-02-23T00:10:02;98527.77;;;8.10;90.90
77086;BME280;66014;53.134;18.006;2024-02-23T00:12:59;98528.80;;;8.12;91.48
77086;BME280;66014;53.134;18.006;2024-02-23T00:30:13;98520.85;;;8.23;89.05
77086;BME280;66014;53.134;18.006;2024-02-23T00:34:18;98512.46;;;8.28;88.55
77086;BME280;66014;53.134;18.006;2024-02-23T00:36:58;98514.84;;;8.31;88.51
77086;BME280;66014;53.134;18.006;2024-02-23T00:39:24;98516.04;;;8.34;88.34
77086;BME280;66014;53.134;18.006;2024-02-23T00:42:02;98513.46;;;8.36;88.55
77086;BME280;66014;53.134;18.006;2024-02-23T00:44:33;98515.38;;;8.37;87.94
77086;BME280;66014;53.134;18.006;2024-02-23T00:51:33;98512.21;;;8.43;87.70
77086;BME280;66014;53.134;18.006;2024-02-23T00:54:03;98504.79;;;8.44;87.95
77086;BME280;66014;53.134;18.006;2024-02-23T01:01:03;98500.38;;;8.46;88.00
77086;BME280;66014;53.134;18.006;2024-02-23T01:04:08;98489.23;;;8.45;88.10
77086;BME280;66014;53.134;18.006;2024-02-23T01:14:09;98494.95;;;8.46;87.85
77086;BME280;66014;53.134;18.006;2024-02-23T01:17:05;98489.55;;;8.47;87.76
77086;BME280;66014;53.134;18.006;2024-02-23T01:20:29;98488.90;;;8.48;87.72
77086;BME280;66014;53.134;18.006;2024-02-23T01:27:43;98486.08;;;8.48;87.60
77086;BME280;66014;53.134;18.006;2024-02-23T01:30:35;98485.19;;;8.48;88.32
77086;BME280;66014;53.134;18.006;2024-02-23T01:33:05;98488.94;;;8.48;88.11
77086;BME280;66014;53.134;18.006;2024-02-23T01:39:19;98483.81;;;8.46;88.11
77086;BME280;66014;53.134;18.006;2024-02-23T01:42:11;98488.56;;;8.45;88.40
77086;BME280;66014;53.134;18.006;2024-02-23T01:49:14;98493.98;;;8.40;88.90
77086;BME280;66014;53.134;18.006;2024-02-23T01:52:37;98490.42;;;8.36;89.28
77086;BME280;66014;53.134;18.006;2024-02-23T01:56:11;98502.19;;;8.33;89.57
77086;BME280;66014;53.134;18.006;2024-02-23T02:04:00;98501.69;;;8.28;89.61
77086;BME280;66014;53.134;18.006;2024-02-23T02:06:27;98488.84;;;8.28;89.68
77086;BME280;66014;53.134;18.006;2024-02-23T02:08:53;98497.15;;;8.30;89.68
77086;BME280;66014;53.134;18.006;2024-02-23T02:11:20;98492.54;;;8.31;89.73
77086;BME280;66014;53.134;18.006;2024-02-23T02:13:54;98500.69;;;8.32;89.83
77086;BME280;66014;53.134;18.006;2024-02-23T02:16:24;98503.20;;;8.35;89.66
77086;BME280;66014;53.134;18.006;2024-02-23T02:18:58;98505.87;;;8.37;89.76
77086;BME280;66014;53.134;18.006;2024-02-23T02:21:42;98509.77;;;8.38;89.97
77086;BME280;66014;53.134;18.006;2024-02-23T02:24:42;98506.09;;;8.40;89.98
77086;BME280;66014;53.134;18.006;2024-02-23T02:27:11;98496.65;;;8.42;90.21
77086;BME280;66014;53.134;18.006;2024-02-23T02:29:40;98495.02;;;8.42;90.57
77086;BME280;66014;53.134;18.006;2024-02-23T02:32:06;98493.89;;;8.41;90.81
77086;BME280;66014;53.134;18.006;2024-02-23T02:34:43;98504.33;;;8.40;91.07
77086;BME280;66014;53.134;18.006;2024-02-23T02:37:34;98495.45;;;8.39;91.10
77086;BME280;66014;53.134;18.006;2024-02-23T02:40:12;98493.85;;;8.40;91.32
77086;BME280;66014;53.134;18.006;2024-02-23T02:42:53;98498.13;;;8.41;91.55
77086;BME280;66014;53.134;18.006;2024-02-23T02:45:22;98492.58;;;8.42;91.71
77086;BME280;66014;53.134;18.006;2024-02-23T02:47:53;98473.48;;;8.41;91.75
77086;BME280;66014;53.134;18.006;2024-02-23T02:50:28;98480.52;;;8.40;91.90
77086;BME280;66014;53.134;18.006;2024-02-23T02:53:04;98483.37;;;8.41;91.96
77086;BME280;66014;53.134;18.006;2024-02-23T02:55:44;98473.13;;;8.42;92.02
77086;BME280;66014;53.134;18.006;2024-02-23T03:01:42;98482.41;;;8.44;92.32
77086;BME280;66014;53.134;18.006;2024-02-23T03:05:11;98482.88;;;8.45;92.23
77086;BME280;66014;53.134;18.006;2024-02-23T03:20:44;98508.08;;;8.67;92.15
77086;BME280;66014;53.134;18.006;2024-02-23T03:23:20;98504.61;;;8.71;92.00
77086;BME280;66014;53.134;18.006;2024-02-23T03:25:47;98510.05;;;8.74;91.98
77086;BME280;66014;53.134;18.006;2024-02-23T03:28:12;98517.53;;;8.77;91.94
77086;BME280;66014;53.134;18.006;2024-02-23T03:30:37;98511.84;;;8.80;91.88
77086;BME280;66014;53.134;18.006;2024-02-23T03:33:04;98507.34;;;8.82;91.94
77086;BME280;66014;53.134;18.006;2024-02-23T03:35:29;98510.99;;;8.83;91.85
77086;BME280;66014;53.134;18.006;2024-02-23T03:37:55;98511.07;;;8.85;91.90
77086;BME280;66014;53.134;18.006;2024-02-23T03:40:20;98517.69;;;8.89;91.77
77086;BME280;66014;53.134;18.006;2024-02-23T03:42:46;98524.52;;;8.91;91.74
77086;BME280;66014;53.134;18.006;2024-02-23T03:45:11;98519.17;;;8.95;91.58
77086;BME280;66014;53.134;18.006;2024-02-23T03:47:38;98522.84;;;8.97;91.52
77086;BME280;66014;53.134;18.006;2024-02-23T03:50:05;98533.32;;;8.98;91.57
77086;BME280;66014;53.134;18.006;2024-02-23T03:52:32;98534.29;;;8.98;91.55
77086;BME280;66014;53.134;18.006;2024-02-23T03:55:19;98548.98;;;9.00;91.52
77086;BME280;66014;53.134;18.006;2024-02-23T03:57:46;98559.76;;;9.00;91.60
77086;BME280;66014;53.134;18.006;2024-02-23T04:00:18;98562.23;;;9.01;91.53
77086;BME280;66014;53.134;18.006;2024-02-23T04:02:47;98562.02;;;9.01;91.53
77086;BME280;66014;53.134;18.006;2024-02-23T04:05:13;98563.66;;;9.01;91.60
77086;BME280;66014;53.134;18.006;2024-02-23T04:07:40;98571.98;;;9.01;91.64
77086;BME280;66014;53.134;18.006;2024-02-23T04:10:07;98569.17;;;9.01;91.63
77086;BME280;66014;53.134;18.006;2024-02-23T04:12:33;98575.80;;;9.00;91.68
77086;BME280;66014;53.134;18.006;2024-02-23T04:15:00;98577.59;;;9.00;91.68
77086;BME280;66014;53.134;18.006;2024-02-23T04:17:27;98581.21;;;9.01;91.76
77086;BME280;66014;53.134;18.006;2024-02-23T04:19:53;98580.59;;;9.02;91.73
77086;BME280;66014;53.134;18.006;2024-02-23T04:22:20;98587.02;;;9.04;91.67
77086;BME280;66014;53.134;18.006;2024-02-23T04:24:46;98587.11;;;9.07;91.62
77086;BME280;66014;53.134;18.006;2024-02-23T04:27:12;98587.86;;;9.11;91.42
77086;BME280;66014;53.134;18.006;2024-02-23T04:29:39;98590.88;;;9.13;91.45
77086;BME280;66014;53.134;18.006;2024-02-23T04:32:06;98589.41;;;9.16;91.33
77086;BME280;66014;53.134;18.006;2024-02-23T04:34:32;98594.52;;;9.20;91.18
77086;BME280;66014;53.134;18.006;2024-02-23T04:36:59;98594.05;;;9.23;91.20
77086;BME280;66014;53.134;18.006;2024-02-23T04:39:25;98593.90;;;9.25;91.12
77086;BME280;66014;53.134;18.006;2024-02-23T04:41:55;98604.83;;;9.28;90.98
77086;BME280;66014;53.134;18.006;2024-02-23T04:44:33;98604.19;;;9.31;90.90
77086;BME280;66014;53.134;18.006;2024-02-23T04:47:09;98597.54;;;9.34;90.82
77086;BME280;66014;53.134;18.006;2024-02-23T04:49:36;98602.48;;;9.37;90.77
77086;BME280;66014;53.134;18.006;2024-02-23T04:52:05;98613.84;;;9.38;90.72
77086;BME280;66014;53.134;18.006;2024-02-23T04:54:31;98610.89;;;9.40;90.68
77086;BME280;66014;53.134;18.006;2024-02-23T04:56:59;98614.85;;;9.43;90.67
77086;BME280;66014;53.134;18.006;2024-02-23T04:59:26;98616.34;;;9.46;90.42
77086;BME280;66014;53.134;18.006;2024-02-23T05:01:52;98623.36;;;9.50;90.23
77086;BME280;66014;53.134;18.006;2024-02-23T05:04:20;98625.81;;;9.54;90.06
77086;BME280;66014;53.134;18.006;2024-02-23T05:06:47;98620.09;;;9.58;89.89
77086;BME280;66014;53.134;18.006;2024-02-23T05:09:18;98626.35;;;9.61;89.73
77086;BME280;66014;53.134;18.006;2024-02-23T05:11:56;98630.12;;;9.65;89.70
77086;BME280;66014;53.134;18.006;2024-02-23T05:14:23;98634.23;;;9.67;89.39
77086;BME280;66014;53.134;18.006;2024-02-23T05:16:58;98639.88;;;9.70;89.18
77086;BME280;66014;53.134;18.006;2024-02-23T05:19:26;98640.98;;;9.73;89.31
77086;BME280;66014;53.134;18.006;2024-02-23T05:21:53;98646.55;;;9.73;88.99
77086;BME280;66014;53.134;18.006;2024-02-23T05:24:19;98652.02;;;9.74;89.10
77086;BME280;66014;53.134;18.006;2024-02-23T05:26:46;98650.39;;;9.74;89.08
77086;BME280;66014;53.134;18.006;2024-02-23T05:29:13;98651.45;;;9.74;89.04
77086;BME280;66014;53.134;18.006;2024-02-23T05:31:49;98654.67;;;9.73;88.92
77086;BME280;66014;53.134;18.006;2024-02-23T05:34:16;98666.85;;;9.74;89.00
77086;BME280;66014;53.134;18.006;2024-02-23T05:36:43;98674.84;;;9.73;88.96
77086;BME280;66014;53.134;18.006;2024-02-23T05:39:19;98681.87;;;9.72;88.88
77086;BME280;66014;53.134;18.006;2024-02-23T05:42:12;98687.07;;;9.71;88.87
77086;BME280;66014;53.134;18.006;2024-02-23T05:44:40;98692.19;;;9.70;88.79
77086;BME280;66014;53.134;18.006;2024-02-23T05:47:09;98692.85;;;9.69;89.02
77086;BME280;66014;53.134;18.006;2024-02-23T05:49:36;98698.30;;;9.67;89.06
77086;BME280;66014;53.134;18.006;2024-02-23T05:52:03;98705.82;;;9.66;88.95
77086;BME280;66014;53.134;18.006;2024-02-23T05:54:29;98705.90;;;9.66;89.03
77086;BME280;66014;53.134;18.006;2024-02-23T05:56:56;98712.50;;;9.66;88.97
77086;BME280;66014;53.134;18.006;2024-02-23T05:59:22;98720.02;;;9.65;88.87
77086;BME280;66014;53.134;18.006;2024-02-23T06:01:49;98729.49;;;9.66;88.80
77086;BME280;66014;53.134;18.006;2024-02-23T06:04:25;98734.89;;;9.66;88.80
77086;BME280;66014;53.134;18.006;2024-02-23T06:06:54;98739.86;;;9.67;88.87
77086;BME280;66014;53.134;18.006;2024-02-23T06:09:21;98750.45;;;9.68;88.79
77086;BME280;66014;53.134;18.006;2024-02-23T06:11:48;98749.38;;;9.69;88.55
77086;BME280;66014;53.134;18.006;2024-02-23T06:14:14;98754.63;;;9.70;88.41
77086;BME280;66014;53.134;18.006;2024-02-23T06:16:41;98762.02;;;9.72;88.49
77086;BME280;66014;53.134;18.006;2024-02-23T06:19:08;98771.04;;;9.73;88.32
77086;BME280;66014;53.134;18.006;2024-02-23T06:21:35;98780.30;;;9.76;88.25
77086;BME280;66014;53.134;18.006;2024-02-23T06:24:03;98788.05;;;9.77;88.04
77086;BME280;66014;53.134;18.006;2024-02-23T06:26:31;98799.77;;;9.79;87.90
77086;BME280;66014;53.134;18.006;2024-02-23T06:28:59;98806.41;;;9.82;87.77
77086;BME280;66014;53.134;18.006;2024-02-23T06:31:28;98810.80;;;9.84;87.84
77086;BME280;66014;53.134;18.006;2024-02-23T06:33:54;98814.60;;;9.86;87.89
77086;BME280;66014;53.134;18.006;2024-02-23T06:36:21;98821.26;;;9.86;87.50
77086;BME280;66014;53.134;18.006;2024-02-23T06:38:47;98826.15;;;9.88;87.44
77086;BME280;66014;53.134;18.006;2024-02-23T06:41:14;98838.02;;;9.90;86.68
77086;BME280;66014;53.134;18.006;2024-02-23T06:43:41;98836.89;;;9.95;86.49
77086;BME280;66014;53.134;18.006;2024-02-23T06:46:08;98844.05;;;9.98;85.83
77086;BME280;66014;53.134;18.006;2024-02-23T06:48:35;98851.84;;;10.01;84.94
77086;BME280;66014;53.134;18.006;2024-02-23T06:51:08;98857.70;;;10.07;84.82
77086;BME280;66014;53.134;18.006;2024-02-23T06:54:08;98862.81;;;10.13;83.16
77086;BME280;66014;53.134;18.006;2024-02-23T06:57:03;98861.02;;;10.18;81.14
77086;BME280;66014;53.134;18.006;2024-02-23T07:06:52;98880.85;;;10.41;73.83
77086;BME280;66014;53.134;18.006;2024-02-23T07:09:45;98885.33;;;10.48;74.52
77086;BME280;66014;53.134;18.006;2024-02-23T07:12:18;98889.92;;;10.52;75.21
77086;BME280;66014;53.134;18.006;2024-02-23T07:14:49;98897.50;;;10.55;73.82
77086;BME280;66014;53.134;18.006;2024-02-23T07:17:38;98901.39;;;10.59;72.41
77086;BME280;66014;53.134;18.006;2024-02-23T07:20:08;98902.77;;;10.60;71.49
77086;BME280;66014;53.134;18.006;2024-02-23T07:22:45;98904.93;;;10.61;70.88
77086;BME280;66014;53.134;18.006;2024-02-23T07:25:21;98909.95;;;10.62;69.38
77086;BME280;66014;53.134;18.006;2024-02-23T07:27:52;98917.31;;;10.62;69.19
77086;BME280;66014;53.134;18.006;2024-02-23T07:30:28;98925.99;;;10.62;68.42
77086;BME280;66014;53.134;18.006;2024-02-23T07:33:17;98940.23;;;10.62;68.16
77086;BME280;66014;53.134;18.006;2024-02-23T07:36:05;98944.02;;;10.61;69.03
77086;BME280;66014;53.134;18.006;2024-02-23T07:38:43;98946.27;;;10.59;65.55
77086;BME280;66014;53.134;18.006;2024-02-23T07:41:13;98947.58;;;10.58;66.66
77086;BME280;66014;53.134;18.006;2024-02-23T07:43:40;98961.00;;;10.57;64.86
77086;BME280;66014;53.134;18.006;2024-02-23T07:46:07;98971.41;;;10.56;65.21
77086;BME280;66014;53.134;18.006;2024-02-23T07:48:38;98972.94;;;10.56;65.25
77086;BME280;66014;53.134;18.006;2024-02-23T07:51:15;98977.13;;;10.52;63.40
77086;BME280;66014;53.134;18.006;2024-02-23T07:53:50;98984.36;;;10.49;63.82
77086;BME280;66014;53.134;18.006;2024-02-23T07:56:19;98990.95;;;10.46;64.40
77086;BME280;66014;53.134;18.006;2024-02-23T07:58:51;99000.31;;;10.44;62.78
77086;BME280;66014;53.134;18.006;2024-02-23T08:01:27;98998.28;;;10.42;62.95
77086;BME280;66014;53.134;18.006;2024-02-23T08:04:02;99001.89;;;10.42;65.31
77086;BME280;66014;53.134;18.006;2024-02-23T08:06:45;99007.98;;;10.41;64.81
77086;BME280;66014;53.134;18.006;2024-02-23T08:18:41;99038.05;;;10.40;65.73
77086;BME280;66014;53.134;18.006;2024-02-23T08:21:10;99043.60;;;10.39;65.04
77086;BME280;66014;53.134;18.006;2024-02-23T08:23:37;99046.34;;;10.38;65.30
77086;BME280;66014;53.134;18.006;2024-02-23T08:26:06;99054.94;;;10.39;65.50
77086;BME280;66014;53.134;18.006;2024-02-23T08:28:35;99059.02;;;10.40;63.73
77086;BME280;66014;53.134;18.006;2024-02-23T08:31:04;99062.73;;;10.43;63.73
77086;BME280;66014;53.134;18.006;2024-02-23T08:33:31;99066.27;;;10.45;65.47
77086;BME280;66014;53.134;18.006;2024-02-23T08:35:57;99072.85;;;10.45;65.00
77086;BME280;66014;53.134;18.006;2024-02-23T08:38:27;99077.55;;;10.44;64.63
77086;BME280;66014;53.134;18.006;2024-02-23T08:40:54;99080.48;;;10.43;65.50
77086;BME280;66014;53.134;18.006;2024-02-23T08:43:20;99083.92;;;10.42;65.44
77086;BME280;66014;53.134;18.006;2024-02-23T08:45:47;99087.70;;;10.42;64.89
77086;BME280;66014;53.134;18.006;2024-02-23T08:48:13;99095.66;;;10.43;64.33
77086;BME280;66014;53.134;18.006;2024-02-23T08:50:41;99103.97;;;10.45;63.76
77086;BME280;66014;53.134;18.006;2024-02-23T08:53:08;99103.98;;;10.47;64.93
77086;BME280;66014;53.134;18.006;2024-02-23T08:55:36;99115.52;;;10.52;64.36
77086;BME280;66014;53.134;18.006;2024-02-23T08:58:02;99115.34;;;10.59;64.64
77086;BME280;66014;53.134;18.006;2024-02-23T09:00:32;99121.56;;;10.67;64.10
77086;BME280;66014;53.134;18.006;2024-02-23T09:03:00;99114.88;;;10.73;63.56
77086;BME280;66014;53.134;18.006;2024-02-23T09:05:27;99117.98;;;10.79;64.33
77086;BME280;66014;53.134;18.006;2024-02-23T09:07:54;99120.52;;;10.88;64.82
77086;BME280;66014;53.134;18.006;2024-02-23T09:10:21;99121.05;;;10.98;64.28
77086;BME280;66014;53.134;18.006;2024-02-23T09:12:48;99127.03;;;11.09;64.74
77086;BME280;66014;53.134;18.006;2024-02-23T09:15:14;99124.08;;;11.20;63.28
77086;BME280;66014;53.134;18.006;2024-02-23T09:17:41;99125.13;;;11.29;63.95
77086;BME280;66014;53.134;18.006;2024-02-23T09:20:08;99130.59;;;11.38;63.00
77086;BME280;66014;53.134;18.006;2024-02-23T09:22:42;99136.64;;;11.43;62.49
77086;BME280;66014;53.134;18.006;2024-02-23T09:25:08;99141.77;;;11.48;63.51
77086;BME280;66014;53.134;18.006;2024-02-23T09:27:35;99145.14;;;11.51;61.98
77086;BME280;66014;53.134;18.006;2024-02-23T09:30:07;99146.48;;;11.46;61.46
77086;BME280;66014;53.134;18.006;2024-02-23T09:32:34;99155.27;;;11.42;61.41
77086;BME280;66014;53.134;18.006;2024-02-23T09:35:00;99169.76;;;11.38;60.91
77086;BME280;66014;53.134;18.006;2024-02-23T09:37:27;99172.38;;;11.34;61.46
77086;BME280;66014;53.134;18.006;2024-02-23T09:39:54;99173.77;;;11.34;62.32
77086;BME280;66014;53.134;18.006;2024-02-23T09:42:22;99180.80;;;11.35;61.29
77086;BME280;66014;53.134;18.006;2024-02-23T09:44:58;99185.38;;;11.33;59.79
77086;BME280;66014;53.134;18.006;2024-02-23T09:47:29;99194.30;;;11.31;59.50
77086;BME280;66014;53.134;18.006;2024-02-23T09:50:05;99204.17;;;11.30;59.68
77086;BME280;66014;53.134;18.006;2024-02-23T09:52:34;99214.98;;;11.32;60.77
77086;BME280;66014;53.134;18.006;2024-02-23T09:55:01;99220.34;;;11.33;59.63
77086;BME280;66014;53.134;18.006;2024-02-23T09:57:38;99230.45;;;11.34;60.68
77086;BME280;66014;53.134;18.006;2024-02-23T10:00:08;99236.14;;;11.35;59.93
77086;BME280;66014;53.134;18.006;2024-02-23T10:02:36;99249.81;;;11.38;60.06
77086;BME280;66014;53.134;18.006;2024-02-23T10:05:04;99256.35;;;11.41;59.48
77086;BME280;66014;53.134;18.006;2024-02-23T10:07:31;99266.36;;;11.45;59.02
77086;BME280;66014;53.134;18.006;2024-02-23T10:09:59;99266.84;;;11.53;59.13
77086;BME280;66014;53.134;18.006;2024-02-23T10:12:28;99272.67;;;11.59;57.72
77086;BME280;66014;53.134;18.006;2024-02-23T10:14:56;99275.47;;;11.64;57.93
77086;BME280;66014;53.134;18.006;2024-02-23T10:17:22;99274.41;;;11.70;56.41
77086;BME280;66014;53.134;18.006;2024-02-23T10:19:49;99284.69;;;11.75;57.66
77086;BME280;66014;53.134;18.006;2024-02-23T10:22:16;99292.45;;;11.89;58.04
77086;BME280;66014;53.134;18.006;2024-02-23T10:24:43;99285.77;;;12.03;56.82
77086;BME280;66014;53.134;18.006;2024-02-23T10:27:20;99287.20;;;12.08;56.75
77086;BME280;66014;53.134;18.006;2024-02-23T10:29:50;99291.27;;;12.14;56.89
77086;BME280;66014;53.134;18.006;2024-02-23T10:32:20;99303.58;;;12.20;55.77
77086;BME280;66014;53.134;18.006;2024-02-23T10:34:52;99307.13;;;12.17;54.78
77086;BME280;66014;53.134;18.006;2024-02-23T10:37:23;99308.11;;;12.08;55.02
77086;BME280;66014;53.134;18.006;2024-02-23T10:40:02;99308.48;;;12.01;55.80
77086;BME280;66014;53.134;18.006;2024-02-23T10:42:46;99318.00;;;11.95;55.44
77086;BME280;66014;53.134;18.006;2024-02-23T10:45:25;99321.76;;;11.91;55.26
77086;BME280;66014;53.134;18.006;2024-02-23T10:47:52;99324.08;;;11.93;55.27
77086;BME280;66014;53.134;18.006;2024-02-23T10:50:26;99323.81;;;12.06;55.74
77086;BME280;66014;53.134;18.006;2024-02-23T10:52:55;99330.98;;;12.22;53.77
77086;BME280;66014;53.134;18.006;2024-02-23T10:55:25;99331.63;;;12.27;52.77
77086;BME280;66014;53.134;18.006;2024-02-23T10:57:55;99328.84;;;12.31;53.53
77086;BME280;66014;53.134;18.006;2024-02-23T11:00:22;99328.32;;;12.29;52.32
77086;BME280;66014;53.134;18.006;2024-02-23T11:02:52;99329.67;;;12.30;53.70
77086;BME280;66014;53.134;18.006;2024-02-23T11:05:20;99338.62;;;12.41;53.35
77086;BME280;66014;53.134;18.006;2024-02-23T11:07:48;99339.30;;;12.56;52.37
77086;BME280;66014;53.134;18.006;2024-02-23T11:10:16;99336.77;;;12.70;52.94
77086;BME280;66014;53.134;18.006;2024-02-23T11:12:43;99332.42;;;12.87;52.95
77086;BME280;66014;53.134;18.006;2024-02-23T11:15:26;99341.38;;;13.00;52.21
77086;BME280;66014;53.134;18.006;2024-02-23T11:17:57;99349.81;;;13.13;52.07
77086;BME280;66014;53.134;18.006;2024-02-23T11:20:37;99351.27;;;13.17;51.60
77086;BME280;66014;53.134;18.006;2024-02-23T11:23:13;99353.14;;;13.21;52.25
77086;BME280;66014;53.134;18.006;2024-02-23T11:25:40;99354.84;;;13.36;52.40
77086;BME280;66014;53.134;18.006;2024-02-23T11:28:21;99353.57;;;13.47;51.71
77086;BME280;66014;53.134;18.006;2024-02-23T11:30:50;99352.19;;;13.52;51.90
77086;BME280;66014;53.134;18.006;2024-02-23T11:33:37;99353.31;;;13.68;52.22
77086;BME280;66014;53.134;18.006;2024-02-23T11:36:05;99360.52;;;14.00;49.48
77086;BME280;66014;53.134;18.006;2024-02-23T11:38:34;99359.57;;;14.11;47.85
77086;BME280;66014;53.134;18.006;2024-02-23T11:41:02;99356.23;;;14.01;47.22
77086;BME280;66014;53.134;18.006;2024-02-23T11:43:34;99364.61;;;13.88;47.97
77086;BME280;66014;53.134;18.006;2024-02-23T11:46:01;99370.84;;;13.68;47.56
77086;BME280;66014;53.134;18.006;2024-02-23T11:48:32;99370.71;;;13.51;49.15
77086;BME280;66014;53.134;18.006;2024-02-23T11:50:59;99373.71;;;13.34;48.34
77086;BME280;66014;53.134;18.006;2024-02-23T11:53:25;99374.39;;;13.13;47.77
77086;BME280;66014;53.134;18.006;2024-02-23T11:55:56;99380.30;;;13.02;48.44
77086;BME280;66014;53.134;18.006;2024-02-23T11:58:24;99376.88;;;12.91;48.75
77086;BME280;66014;53.134;18.006;2024-02-23T12:00:51;99377.02;;;12.89;50.23
77086;BME280;66014;53.134;18.006;2024-02-23T12:03:17;99381.15;;;13.08;48.60
77086;BME280;66014;53.134;18.006;2024-02-23T12:05:44;99388.34;;;13.15;47.73
77086;BME280;66014;53.134;18.006;2024-02-23T12:08:11;99390.89;;;13.04;48.83
77086;BME280;66014;53.134;18.006;2024-02-23T12:10:39;99389.21;;;13.03;49.69
77086;BME280;66014;53.134;18.006;2024-02-23T12:13:06;99385.64;;;13.12;50.17
77086;BME280;66014;53.134;18.006;2024-02-23T12:15:33;99388.97;;;13.29;50.31
77086;BME280;66014;53.134;18.006;2024-02-23T12:17:59;99388.85;;;13.48;50.22
77086;BME280;66014;53.134;18.006;2024-02-23T12:20:33;99388.55;;;13.75;50.25
77086;BME280;66014;53.134;18.006;2024-02-23T12:23:01;99391.75;;;13.78;49.61
77086;BME280;66014;53.134;18.006;2024-02-23T12:25:27;99395.11;;;13.68;49.93
77086;BME280;66014;53.134;18.006;2024-02-23T12:27:57;99399.86;;;13.67;49.40
77086;BME280;66014;53.134;18.006;2024-02-23T12:30:24;99397.45;;;13.69;50.06
77086;BME280;66014;53.134;18.006;2024-02-23T12:33:03;99402.96;;;13.77;49.94
77086;BME280;66014;53.134;18.006;2024-02-23T12:35:35;99409.06;;;13.76;49.55
77086;BME280;66014;53.134;18.006;2024-02-23T12:38:17;99413.86;;;13.57;50.20
77086;BME280;66014;53.134;18.006;2024-02-23T12:40:43;99410.58;;;13.43;50.76
77086;BME280;66014;53.134;18.006;2024-02-23T12:43:21;99411.84;;;13.35;51.26
77086;BME280;66014;53.134;18.006;2024-02-23T12:45:58;99419.28;;;13.26;51.46
77086;BME280;66014;53.134;18.006;2024-02-23T12:48:27;99424.17;;;13.07;50.66
77086;BME280;66014;53.134;18.006;2024-02-23T12:50:56;99426.33;;;12.85;50.73
77086;BME280;66014;53.134;18.006;2024-02-23T12:53:48;99435.60;;;12.60;50.02
77086;BME280;66014;53.134;18.006;2024-02-23T12:56:14;99442.08;;;12.29;50.12
77086;BME280;66014;53.134;18.006;2024-02-23T12:58:43;99450.98;;;12.10;50.29
77086;BME280;66014;53.134;18.006;2024-02-23T13:01:10;99454.87;;;11.94;49.84
77086;BME280;66014;53.134;18.006;2024-02-23T13:03:39;99462.87;;;11.79;50.00
77086;BME280;66014;53.134;18.006;2024-02-23T13:06:09;99471.62;;;11.69;50.61
77086;BME280;66014;53.134;18.006;2024-02-23T13:08:36;99485.55;;;11.60;50.64
77086;BME280;66014;53.134;18.006;2024-02-23T13:11:06;99493.66;;;11.56;50.87
77086;BME280;66014;53.134;18.006;2024-02-23T13:13:33;99497.49;;;11.51;50.60
77086;BME280;66014;53.134;18.006;2024-02-23T13:15:59;99501.56;;;11.46;50.34
77086;BME280;66014;53.134;18.006;2024-02-23T13:18:27;99509.77;;;11.40;50.15
77086;BME280;66014;53.134;18.006;2024-02-23T13:20:54;99516.36;;;11.36;50.65
77086;BME280;66014;53.134;18.006;2024-02-23T13:23:20;99522.09;;;11.34;50.18
77086;BME280;66014;53.134;18.006;2024-02-23T13:25:47;99519.90;;;11.31;50.77
77086;BME280;66014;53.134;18.006;2024-02-23T13:28:16;99530.53;;;11.26;51.00
77086;BME280;66014;53.134;18.006;2024-02-23T13:30:42;99534.67;;;11.22;51.27
77086;BME280;66014;53.134;18.006;2024-02-23T13:33:12;99532.10;;;11.17;51.01
77086;BME280;66014;53.134;18.006;2024-02-23T13:35:39;99540.59;;;11.11;50.33
77086;BME280;66014;53.134;18.006;2024-02-23T13:38:05;99544.37;;;11.01;50.70
77086;BME280;66014;53.134;18.006;2024-02-23T13:40:42;99543.56;;;10.92;50.75
77086;BME280;66014;53.134;18.006;2024-02-23T13:43:30;99541.94;;;10.84;50.99
77086;BME280;66014;53.134;18.006;2024-02-23T13:46:07;99540.21;;;10.78;51.69
77086;BME280;66014;53.134;18.006;2024-02-23T13:48:36;99544.30;;;10.75;51.76
77086;BME280;66014;53.134;18.006;2024-02-23T13:51:20;99544.79;;;10.74;51.90
77086;BME280;66014;53.134;18.006;2024-02-23T13:56:57;99544.95;;;10.75;52.04
77086;BME280;66014;53.134;18.006;2024-02-23T13:59:24;99546.39;;;10.75;52.24
77086;BME280;66014;53.134;18.006;2024-02-23T14:01:56;99545.04;;;10.76;52.28
77086;BME280;66014;53.134;18.006;2024-02-23T14:04:23;99536.98;;;10.76;53.00
77086;BME280;66014;53.134;18.006;2024-02-23T14:06:58;99526.77;;;10.80;52.56
77086;BME280;66014;53.134;18.006;2024-02-23T14:09:46;99523.75;;;10.86;52.43
77086;BME280;66014;53.134;18.006;2024-02-23T14:12:14;99521.19;;;10.98;52.71
77086;BME280;66014;53.134;18.006;2024-02-23T14:14:41;99524.73;;;11.09;52.87
77086;BME280;66014;53.134;18.006;2024-02-23T14:17:09;99529.52;;;11.15;52.74
77086;BME280;66014;53.134;18.006;2024-02-23T14:19:55;99527.88;;;11.19;52.84
77086;BME280;66014;53.134;18.006;2024-02-23T14:22:23;99528.58;;;11.17;52.40
77086;BME280;66014;53.134;18.006;2024-02-23T14:24:53;99529.50;;;11.08;52.49
77086;BME280;66014;53.134;18.006;2024-02-23T14:27:23;99522.91;;;10.99;53.01
77086;BME280;66014;53.134;18.006;2024-02-23T14:29:50;99523.66;;;10.92;52.85
77086;BME280;66014;53.134;18.006;2024-02-23T14:32:32;99520.63;;;10.87;53.13
77086;BME280;66014;53.134;18.006;2024-02-23T14:35:09;99527.44;;;10.83;53.05
77086;BME280;66014;53.134;18.006;2024-02-23T14:37:40;99522.69;;;10.84;53.28
77086;BME280;66014;53.134;18.006;2024-02-23T14:40:07;99525.14;;;10.83;53.52
77086;BME280;66014;53.134;18.006;2024-02-23T14:42:43;99530.10;;;10.79;53.53
77086;BME280;66014;53.134;18.006;2024-02-23T14:45:22;99539.40;;;10.78;53.59
77086;BME280;66014;53.134;18.006;2024-02-23T14:47:50;99539.15;;;10.79;53.95
77086;BME280;66014;53.134;18.006;2024-02-23T14:50:17;99543.48;;;10.81;53.76